createdAt,value
2023-03-24T00:02:29.668Z,100354.19
2023-03-24T00:05:22.547Z,100343.84
2023-03-24T00:08:10.585Z,100298.69
2023-03-24T00:11:03.591Z,100350.78
2023-03-24T00:13:51.354Z,100336.59
2023-03-24T00:16:42.935Z,100295.28
2023-03-24T00:19:30.837Z,100333.81
2023-03-24T00:22:21.566Z,100333.34
2023-03-24T00:25:11.362Z,100344.66
2023-03-24T00:28:03.282Z,100348.50
2023-03-24T00:30:52.415Z,100336.25
2023-03-24T00:33:40.781Z,100331.56
2023-03-24T00:36:29.749Z,100360.91
2023-03-24T00:39:20.975Z,100357.66
2023-03-24T00:42:09.363Z,100360.41
2023-03-24T00:44:57.069Z,100366.81
2023-03-24T00:47:45.081Z,100361.66
2023-03-24T00:50:33.821Z,100359.25
2023-03-24T00:53:23.528Z,100356.59
2023-03-24T00:56:12.013Z,100363.81
2023-03-24T00:59:02.581Z,100341.06
2023-03-24T01:01:50.398Z,100332.63
2023-03-24T01:04:41.412Z,100349.56
2023-03-24T01:07:32.819Z,100356.16
2023-03-24T01:10:26.503Z,100351.97
2023-03-24T01:13:14.696Z,100324.81
2023-03-24T01:16:03.456Z,100315.88
2023-03-24T01:18:52.885Z,100352.06
2023-03-24T01:21:42.579Z,100350.72
2023-03-24T01:24:31.482Z,100357.31
2023-03-24T01:27:19.349Z,100333.44
2023-03-24T01:30:08.244Z,100344.44
2023-03-24T01:32:56.668Z,100341.38
2023-03-24T01:35:44.573Z,100342.16
2023-03-24T01:38:32.482Z,100339.22
2023-03-24T01:41:20.330Z,100331.00
2023-03-24T01:44:34.616Z,100341.88
2023-03-24T01:47:22.391Z,100344.03
2023-03-24T01:50:10.276Z,100333.88
2023-03-24T01:52:58.876Z,100347.75
2023-03-24T01:55:48.536Z,100312.50
2023-03-24T01:58:46.152Z,100306.03
2023-03-24T02:01:46.205Z,100338.56
2023-03-24T02:05:01.923Z,100312.63
2023-03-24T02:08:16.965Z,100324.81
2023-03-24T02:11:05.005Z,100309.94
2023-03-24T02:14:02.264Z,100315.66
2023-03-24T02:16:58.785Z,100318.84
2023-03-24T02:20:26.060Z,100309.72
2023-03-24T02:23:22.522Z,100308.91
2023-03-24T02:26:25.240Z,100311.81
2023-03-24T02:29:40.918Z,100284.06
2023-03-24T02:32:58.462Z,100319.59
2023-03-24T02:36:23.777Z,100315.22
2023-03-24T02:39:49.007Z,100306.88
2023-03-24T02:42:57.325Z,100304.13
2023-03-24T02:45:50.942Z,100304.13
2023-03-24T02:49:05.229Z,100295.88
2023-03-24T02:52:12.977Z,100299.84
2023-03-24T02:55:12.740Z,100296.41
2023-03-24T02:59:08.364Z,100301.53
2023-03-24T03:02:08.664Z,100280.03
2023-03-24T03:05:14.100Z,100313.94
2023-03-24T03:08:05.090Z,100298.00
2023-03-24T03:10:54.899Z,100321.38
2023-03-24T03:13:54.558Z,100327.06
2023-03-24T03:17:00.219Z,100304.75
2023-03-24T03:19:55.797Z,100331.75
2023-03-24T03:23:12.023Z,100330.09
2023-03-24T03:26:04.858Z,100314.16
2023-03-24T03:28:58.350Z,100318.19
2023-03-24T03:31:59.932Z,100318.41
2023-03-24T03:35:19.609Z,100318.50
2023-03-24T03:38:37.375Z,100321.00
2023-03-24T03:41:25.249Z,100296.59
2023-03-24T03:44:12.973Z,100327.19
2023-03-24T03:47:01.343Z,100330.06
2023-03-24T03:49:59.331Z,100317.22
2023-03-24T03:52:47.057Z,100314.75
2023-03-24T03:55:35.761Z,100323.88
2023-03-24T03:58:24.852Z,100308.34
2023-03-24T04:01:20.362Z,100321.06
2023-03-24T04:05:07.932Z,100325.03
2023-03-24T04:08:31.805Z,100328.38
2023-03-24T04:11:46.523Z,100339.41
2023-03-24T04:15:12.113Z,100331.91
2023-03-24T04:18:45.859Z,100300.31
2023-03-24T04:21:48.889Z,100334.88
2023-03-24T04:24:57.402Z,100335.78
2023-03-24T04:28:03.808Z,100331.97
2023-03-24T04:31:30.335Z,100347.94
2023-03-24T04:34:26.348Z,100329.66
2023-03-24T04:37:19.816Z,100341.59
2023-03-24T04:40:24.509Z,100350.19
2023-03-24T04:43:20.484Z,100346.31
2023-03-24T04:46:09.675Z,100347.13
2023-03-24T04:49:12.142Z,100350.88
2023-03-24T04:52:00.777Z,100358.16
2023-03-24T04:54:55.468Z,100352.47
2023-03-24T04:57:43.590Z,100337.72
2023-03-24T05:00:33.796Z,100354.28
2023-03-24T05:03:21.735Z,100360.38
2023-03-24T05:06:13.202Z,100362.88
2023-03-24T05:09:01.006Z,100352.75
2023-03-24T05:11:51.333Z,100377.59
2023-03-24T05:14:40.122Z,100372.19
2023-03-24T05:17:28.347Z,100380.06
2023-03-24T05:20:16.838Z,100369.84
2023-03-24T05:23:09.371Z,100356.94
2023-03-24T05:25:57.210Z,100353.03
2023-03-24T05:28:46.822Z,100329.16
2023-03-24T05:31:34.666Z,100327.63
2023-03-24T05:34:35.021Z,100330.59
2023-03-24T05:37:34.602Z,100332.16
2023-03-24T05:40:23.841Z,100337.91
2023-03-24T05:43:37.947Z,100338.88
2023-03-24T05:46:34.333Z,100308.13
2023-03-24T05:49:24.619Z,100326.50
2023-03-24T05:52:16.532Z,100333.13
2023-03-24T05:55:07.828Z,100361.03
2023-03-24T05:57:56.926Z,100366.34
2023-03-24T06:01:10.727Z,100354.97
2023-03-24T06:03:59.996Z,100351.97
2023-03-24T06:06:47.824Z,100342.97
2023-03-24T06:09:42.702Z,100359.50
2023-03-24T06:12:34.449Z,100361.31
2023-03-24T06:15:28.190Z,100376.38
2023-03-24T06:18:24.448Z,100360.34
2023-03-24T06:21:12.257Z,100363.75
2023-03-24T06:24:03.471Z,100365.00
2023-03-24T06:26:52.760Z,100356.13
2023-03-24T06:29:44.249Z,100356.88
2023-03-24T06:32:33.877Z,100347.88
2023-03-24T06:35:21.665Z,100371.75
2023-03-24T06:38:19.086Z,100362.78
2023-03-24T06:41:07.248Z,100375.28
2023-03-24T06:43:55.660Z,100351.59
2023-03-24T06:46:43.797Z,100359.25
2023-03-24T06:49:32.393Z,100348.34
2023-03-24T06:52:20.136Z,100367.03
2023-03-24T06:55:08.579Z,100375.47
2023-03-24T06:57:56.446Z,100360.06
2023-03-24T07:01:17.402Z,100364.25
2023-03-24T07:04:17.392Z,100362.69
2023-03-24T07:08:06.615Z,100364.78
2023-03-24T07:10:54.225Z,100358.66
2023-03-24T07:13:42.176Z,100340.34
2023-03-24T07:16:34.337Z,100353.78
2023-03-24T07:19:41.940Z,100350.75
2023-03-24T07:22:49.875Z,100357.97
2023-03-24T07:25:54.799Z,100354.31
2023-03-24T07:29:02.717Z,100352.38
2023-03-24T07:31:59.036Z,100353.56
2023-03-24T07:34:48.513Z,100354.38
2023-03-24T07:37:37.890Z,100346.91
2023-03-24T07:40:25.952Z,100353.28
2023-03-24T07:43:13.722Z,100346.00
2023-03-24T07:46:17.364Z,100342.97
2023-03-24T07:49:18.111Z,100351.88
2023-03-24T07:52:14.348Z,100329.56
2023-03-24T07:55:07.213Z,100335.22
2023-03-24T07:58:18.776Z,100341.34
2023-03-24T08:01:21.833Z,100333.31
2023-03-24T08:04:14.410Z,100303.03
2023-03-24T08:07:20.278Z,100329.75
2023-03-24T08:10:09.369Z,100317.69
2023-03-24T08:13:00.793Z,100315.72
2023-03-24T08:15:49.228Z,100304.81
2023-03-24T08:18:36.949Z,100313.59
2023-03-24T08:21:25.968Z,100295.09
2023-03-24T08:24:13.723Z,100315.28
2023-03-24T08:27:06.592Z,100312.16
2023-03-24T08:29:54.415Z,100311.44
2023-03-24T08:32:47.817Z,100310.56
2023-03-24T08:35:39.394Z,100282.78
2023-03-24T08:38:31.956Z,100295.19
2023-03-24T08:41:19.911Z,100305.41
2023-03-24T08:44:07.875Z,100282.94
2023-03-24T08:46:55.596Z,100299.16
2023-03-24T08:49:43.341Z,100297.72
2023-03-24T08:52:30.982Z,100293.00
2023-03-24T08:55:20.000Z,100272.63
2023-03-24T08:58:08.638Z,100284.03
2023-03-24T09:00:56.418Z,100269.94
2023-03-24T09:03:44.990Z,100274.94
2023-03-24T09:06:33.053Z,100268.84
2023-03-24T09:09:20.932Z,100274.28
2023-03-24T09:12:10.999Z,100258.56
2023-03-24T09:14:59.007Z,100254.38
2023-03-24T09:17:48.193Z,100256.50
2023-03-24T09:20:36.346Z,100269.84
2023-03-24T09:23:24.293Z,100260.53
2023-03-24T09:26:12.055Z,100268.56
2023-03-24T09:29:00.268Z,100250.16
2023-03-24T09:31:47.960Z,100270.00
2023-03-24T09:34:38.504Z,100275.19
2023-03-24T09:37:30.011Z,100266.94
2023-03-24T09:40:29.341Z,100270.44
2023-03-24T09:43:38.967Z,100259.31
2023-03-24T09:46:37.543Z,100261.06
2023-03-24T09:49:30.750Z,100256.59
2023-03-24T09:52:25.290Z,100256.41
2023-03-24T09:55:19.783Z,100237.38
2023-03-24T09:58:09.352Z,100247.25
2023-03-24T10:00:57.675Z,100221.38
2023-03-24T10:03:47.195Z,100249.25
2023-03-24T10:06:42.425Z,100239.38
2023-03-24T10:09:33.934Z,100232.66
2023-03-24T10:12:50.684Z,100239.66
2023-03-24T10:15:47.768Z,100238.34
2023-03-24T10:18:44.219Z,100231.94
2023-03-24T10:21:36.583Z,100196.69
2023-03-24T10:24:44.859Z,100224.38
2023-03-24T10:27:42.674Z,100192.22
2023-03-24T10:30:34.475Z,100210.72
2023-03-24T10:33:22.079Z,100227.69
2023-03-24T10:36:21.298Z,100213.28
2023-03-24T10:39:19.949Z,100220.19
2023-03-24T10:42:18.786Z,100231.47
2023-03-24T10:45:12.002Z,100213.34
2023-03-24T10:48:01.939Z,100220.69
2023-03-24T10:50:49.845Z,100212.75
2023-03-24T10:53:37.799Z,100212.53
2023-03-24T10:56:40.697Z,100215.47
2023-03-24T10:59:57.981Z,100182.38
2023-03-24T11:03:07.571Z,100192.06
2023-03-24T11:06:01.575Z,100199.44
2023-03-24T11:09:11.936Z,100181.34
2023-03-24T11:12:04.400Z,100184.41
2023-03-24T11:14:54.408Z,100184.06
2023-03-24T11:17:42.733Z,100178.59
2023-03-24T11:20:36.736Z,100170.31
2023-03-24T11:23:32.061Z,100169.28
2023-03-24T11:26:23.505Z,100148.53
2023-03-24T11:29:18.648Z,100153.94
2023-03-24T11:32:16.811Z,100121.81
2023-03-24T11:35:17.988Z,100148.66
2023-03-24T11:38:08.204Z,100152.38
2023-03-24T11:41:05.566Z,100141.38
2023-03-24T11:44:17.639Z,100140.50
2023-03-24T11:47:09.093Z,100128.97
2023-03-24T11:50:19.141Z,100128.63
2023-03-24T11:53:20.197Z,100114.72
2023-03-24T11:56:37.888Z,100112.25
2023-03-24T11:59:44.119Z,100105.47
2023-03-24T12:02:43.758Z,100079.53
2023-03-24T12:05:42.534Z,100100.72
2023-03-24T12:08:47.339Z,100091.50
2023-03-24T12:11:53.624Z,100088.22
2023-03-24T12:14:48.748Z,100087.22
2023-03-24T12:17:42.728Z,100070.53
2023-03-24T12:21:04.906Z,100074.03
2023-03-24T12:24:31.437Z,100069.34
2023-03-24T12:27:52.681Z,100064.84
2023-03-24T12:31:17.391Z,100054.72
2023-03-24T12:34:42.782Z,100055.50
2023-03-24T12:37:39.348Z,100054.78
2023-03-24T12:40:47.770Z,100046.75
2023-03-24T12:43:53.491Z,100054.31
2023-03-24T12:47:00.995Z,99992.13
2023-03-24T12:50:00.505Z,100041.19
2023-03-24T12:53:06.787Z,100045.91
2023-03-24T12:56:14.474Z,100039.44
2023-03-24T12:59:04.290Z,100015.53
2023-03-24T13:02:13.284Z,100024.06
2023-03-24T13:05:07.761Z,100019.94
2023-03-24T13:07:59.425Z,100011.50
2023-03-24T13:10:48.851Z,100011.50
2023-03-24T13:13:44.801Z,100006.72
2023-03-24T13:16:37.115Z,99997.75
2023-03-24T13:19:26.288Z,99992.72
2023-03-24T13:22:18.705Z,99989.78
2023-03-24T13:25:22.806Z,99979.66
2023-03-24T13:28:18.625Z,99981.66
2023-03-24T13:31:09.792Z,99977.63
2023-03-24T13:34:01.057Z,99984.31
2023-03-24T13:37:00.410Z,99986.06
2023-03-24T13:39:58.355Z,99955.13
2023-03-24T13:43:07.176Z,99975.88
2023-03-24T13:46:07.815Z,99951.34
2023-03-24T13:48:57.442Z,99956.25
2023-03-24T13:51:47.030Z,99951.31
2023-03-24T13:54:37.974Z,99965.22
2023-03-24T13:57:26.857Z,99953.09
2023-03-24T14:00:21.578Z,99951.16
2023-03-24T14:03:31.653Z,99941.31
2023-03-24T14:06:45.556Z,99959.63
2023-03-24T14:09:33.591Z,99946.44
2023-03-24T14:12:21.566Z,99943.25
2023-03-24T14:15:14.318Z,99953.09
2023-03-24T14:18:25.325Z,99888.13
2023-03-24T14:21:13.580Z,99932.03
2023-03-24T14:24:04.366Z,99919.19
2023-03-24T14:26:52.951Z,99937.88
2023-03-24T14:29:52.680Z,99929.00
2023-03-24T14:32:50.286Z,99931.41
2023-03-24T14:36:06.705Z,99930.97
2023-03-24T14:38:54.543Z,99926.84
2023-03-24T14:41:44.531Z,99914.72
2023-03-24T14:44:56.848Z,99916.25
2023-03-24T14:47:45.541Z,99932.13
2023-03-24T14:50:34.764Z,99912.44
2023-03-24T14:53:23.660Z,99912.09
2023-03-24T14:56:16.698Z,99923.00
2023-03-24T14:59:17.565Z,99856.50
2023-03-24T15:02:33.462Z,99920.56
2023-03-24T15:05:32.662Z,99913.41
2023-03-24T15:08:22.659Z,99909.38
2023-03-24T15:11:11.841Z,99895.59
2023-03-24T15:14:02.597Z,99920.66
2023-03-24T15:17:07.430Z,99908.84
2023-03-24T15:19:55.754Z,99912.69
2023-03-24T15:22:43.414Z,99913.72
2023-03-24T15:25:31.069Z,99913.28
2023-03-24T15:28:24.830Z,99905.69
2023-03-24T15:31:14.757Z,99910.91
2023-03-24T15:34:35.973Z,99911.72
2023-03-24T15:37:48.480Z,99901.88
2023-03-24T15:40:39.657Z,99885.06
2023-03-24T15:43:27.612Z,99903.44
2023-03-24T15:46:30.526Z,99898.94
2023-03-24T15:49:23.931Z,99887.16
2023-03-24T15:52:23.510Z,99898.41
2023-03-24T15:55:36.924Z,99901.22
2023-03-24T15:58:28.636Z,99910.09
2023-03-24T16:01:20.977Z,99870.34
2023-03-24T16:04:15.990Z,99894.25
2023-03-24T16:07:05.469Z,99899.56
2023-03-24T16:10:05.227Z,99899.25
2023-03-24T16:12:53.720Z,99880.78
2023-03-24T16:15:56.842Z,99891.66
2023-03-24T16:18:51.478Z,99852.47
2023-03-24T16:21:39.087Z,99890.19
2023-03-24T16:24:29.956Z,99865.38
2023-03-24T16:27:17.892Z,99885.38
2023-03-24T16:30:38.077Z,99901.34
2023-03-24T16:33:33.018Z,99894.34
2023-03-24T16:36:22.338Z,99896.81
2023-03-24T16:39:21.830Z,99890.91
2023-03-24T16:42:12.875Z,99877.06
2023-03-24T16:45:00.533Z,99854.47
2023-03-24T16:47:48.452Z,99887.56
2023-03-24T16:50:45.615Z,99855.00
2023-03-24T16:53:33.424Z,99884.81
2023-03-24T16:56:23.168Z,99874.09
2023-03-24T16:59:12.707Z,99878.47
2023-03-24T17:02:06.208Z,99885.19
2023-03-24T17:04:54.334Z,99868.91
2023-03-24T17:07:43.023Z,99858.09
2023-03-24T17:10:31.228Z,99877.53
2023-03-24T17:13:21.995Z,99889.81
2023-03-24T17:16:10.974Z,99881.38
2023-03-24T17:18:58.758Z,99877.75
2023-03-24T17:22:03.398Z,99875.34
2023-03-24T17:24:57.767Z,99874.84
2023-03-24T17:27:46.402Z,99882.78
2023-03-24T17:30:34.195Z,99881.06
2023-03-24T17:33:21.805Z,99879.75
2023-03-24T17:36:17.230Z,99872.16
2023-03-24T17:39:05.671Z,99856.63
2023-03-24T17:41:57.754Z,99874.88
2023-03-24T17:44:47.554Z,99884.28
2023-03-24T17:47:35.682Z,99859.13
2023-03-24T17:50:23.592Z,99865.00
2023-03-24T17:53:13.903Z,99874.91
2023-03-24T17:56:08.439Z,99874.38
2023-03-24T17:58:58.898Z,99877.38
2023-03-24T18:01:47.551Z,99865.31
2023-03-24T18:04:35.271Z,99847.56
2023-03-24T18:07:23.413Z,99873.38
2023-03-24T18:10:11.356Z,99859.69
2023-03-24T18:13:02.575Z,99875.13
2023-03-24T18:15:50.412Z,99874.97
2023-03-24T18:18:39.336Z,99851.03
2023-03-24T18:21:26.998Z,99860.56
2023-03-24T18:24:14.858Z,99874.19
2023-03-24T18:27:04.003Z,99870.41
2023-03-24T18:29:51.715Z,99872.47
2023-03-24T18:32:40.500Z,99871.88
2023-03-24T18:35:28.572Z,99859.53
2023-03-24T18:38:22.236Z,99872.09
2023-03-24T18:41:13.101Z,99851.25
2023-03-24T18:44:01.025Z,99837.59
2023-03-24T18:46:51.850Z,99769.16
2023-03-24T18:49:42.575Z,99860.97
2023-03-24T18:52:33.314Z,99860.69
2023-03-24T18:55:22.071Z,99853.31
2023-03-24T18:58:15.625Z,99861.09
2023-03-24T19:01:12.463Z,99865.09
2023-03-24T19:04:00.393Z,99856.75
2023-03-24T19:06:50.551Z,99829.69
2023-03-24T19:09:38.489Z,99858.31
2023-03-24T19:12:26.427Z,99849.72
2023-03-24T19:15:17.243Z,99850.03
2023-03-24T19:18:05.107Z,99860.63
2023-03-24T19:20:59.299Z,99845.59
2023-03-24T19:23:47.286Z,99844.66
2023-03-24T19:26:35.151Z,99852.66
2023-03-24T19:29:22.820Z,99834.06
2023-03-24T19:32:10.568Z,99859.03
2023-03-24T19:34:58.319Z,99850.66
2023-03-24T19:37:49.503Z,99850.03
2023-03-24T19:40:37.297Z,99849.16
2023-03-24T19:43:25.538Z,99836.56
2023-03-24T19:46:13.255Z,99818.84
2023-03-24T19:49:01.272Z,99838.25
2023-03-24T19:51:51.157Z,99837.56
2023-03-24T19:54:38.983Z,99826.38
2023-03-24T19:57:27.543Z,99826.09
2023-03-24T20:00:15.957Z,99835.28
2023-03-24T20:03:03.725Z,99846.47
2023-03-24T20:05:53.762Z,99824.69
2023-03-24T20:08:41.603Z,99828.47
2023-03-24T20:11:29.300Z,99826.28
2023-03-24T20:14:18.640Z,99833.69
2023-03-24T20:17:06.324Z,99810.66
2023-03-24T20:19:54.497Z,99825.91
2023-03-24T20:22:45.873Z,99817.88
2023-03-24T20:25:33.572Z,99794.78
2023-03-24T20:28:21.609Z,99830.50
2023-03-24T20:31:11.156Z,99815.69
2023-03-24T20:33:59.452Z,99794.44
2023-03-24T20:36:47.095Z,99815.31
2023-03-24T20:39:35.094Z,99798.38
2023-03-24T20:42:25.411Z,99809.53
2023-03-24T20:45:13.121Z,99806.81
2023-03-24T20:48:00.784Z,99809.66
2023-03-24T20:50:48.697Z,99807.41
2023-03-24T20:53:36.923Z,99797.91
2023-03-24T20:56:25.303Z,99788.16
2023-03-24T20:59:14.007Z,99793.44
2023-03-24T21:02:02.539Z,99783.44
2023-03-24T21:04:50.162Z,99780.31
2023-03-24T21:07:38.547Z,99792.56
2023-03-24T21:10:26.244Z,99786.25
2023-03-24T21:13:16.790Z,99785.81
2023-03-24T21:16:09.774Z,99791.69
2023-03-24T21:18:59.178Z,99788.84
2023-03-24T21:21:49.720Z,99789.91
2023-03-24T21:24:37.884Z,99787.69
2023-03-24T21:27:36.655Z,99779.59
2023-03-24T21:30:26.428Z,99771.69
2023-03-24T21:33:17.076Z,99779.06
2023-03-24T21:36:05.191Z,99754.38
2023-03-24T21:38:54.335Z,99753.56
2023-03-24T21:41:42.931Z,99780.69
2023-03-24T21:44:30.662Z,99763.63
2023-03-24T21:47:27.357Z,99777.09
2023-03-24T21:50:19.310Z,99741.97
2023-03-24T21:53:15.408Z,99769.78
2023-03-24T21:56:06.117Z,99756.44
2023-03-24T21:59:00.209Z,99738.06
2023-03-24T22:01:47.952Z,99784.50
2023-03-24T22:04:38.579Z,99786.97
2023-03-24T22:07:26.198Z,99751.41
2023-03-24T22:10:16.996Z,99790.13
2023-03-24T22:13:05.224Z,99746.19
2023-03-24T22:15:56.079Z,99763.47
2023-03-24T22:18:43.775Z,99769.75
2023-03-24T22:21:32.478Z,99763.13
2023-03-24T22:24:20.079Z,99770.72
2023-03-24T22:27:08.194Z,99769.59
2023-03-24T22:29:55.973Z,99771.97
2023-03-24T22:32:43.791Z,99767.53
2023-03-24T22:35:31.696Z,99760.22
2023-03-24T22:38:19.381Z,99776.81
2023-03-24T22:41:10.981Z,99752.19
2023-03-24T22:43:58.702Z,99782.81
2023-03-24T22:46:46.431Z,99758.50
2023-03-24T22:49:34.499Z,99755.81
2023-03-24T22:52:22.116Z,99771.31
2023-03-24T22:55:10.642Z,99763.41
2023-03-24T22:58:00.824Z,99757.47
2023-03-24T23:01:04.580Z,99750.75
2023-03-24T23:03:55.228Z,99760.28
2023-03-24T23:06:46.434Z,99756.88
2023-03-24T23:09:34.481Z,99750.66
2023-03-24T23:12:22.681Z,99753.19
2023-03-24T23:15:14.337Z,99726.91
2023-03-24T23:18:02.139Z,99756.66
2023-03-24T23:20:50.254Z,99754.34
2023-03-24T23:23:40.076Z,99703.16
2023-03-24T23:26:30.233Z,99747.41
2023-03-24T23:29:18.172Z,99758.41
2023-03-24T23:32:06.872Z,99757.50
2023-03-24T23:34:54.912Z,99753.16
2023-03-24T23:37:42.963Z,99753.25
2023-03-24T23:40:30.745Z,99756.81
2023-03-24T23:43:18.368Z,99757.59
2023-03-24T23:46:06.572Z,99748.88
2023-03-24T23:48:54.469Z,99724.41
2023-03-24T23:51:43.624Z,99745.91
2023-03-24T23:54:32.458Z,99740.66
2023-03-24T23:57:20.256Z,99742.47
